sensor_id;sensor_type;location;lat;lon;timestamp;temperature;humidity
44111;DHT22;29774;52.664;5.074;2023-11-21T00:00:33;9.00;90.20
44111;DHT22;29774;52.664;5.074;2023-11-21T00:02:59;9.00;90.30
44111;DHT22;29774;52.664;5.074;2023-11-21T00:05:25;9.00;90.30
44111;DHT22;29774;52.664;5.074;2023-11-21T00:07:50;9.00;90.30
44111;DHT22;29774;52.664;5.074;2023-11-21T00:10:16;9.00;90.30
44111;DHT22;29774;52.664;5.074;2023-11-21T00:12:42;9.00;90.30
44111;DHT22;29774;52.664;5.074;2023-11-21T00:15:09;9.00;90.30
44111;DHT22;29774;52.664;5.074;2023-11-21T00:17:36;9.00;90.30
44111;DHT22;29774;52.664;5.074;2023-11-21T00:20:03;9.00;90.40
44111;DHT22;29774;52.664;5.074;2023-11-21T00:22:32;9.00;90.40
44111;DHT22;29774;52.664;5.074;2023-11-21T00:24:58;9.00;90.40
44111;DHT22;29774;52.664;5.074;2023-11-21T00:27:24;9.00;90.40
44111;DHT22;29774;52.664;5.074;2023-11-21T00:29:49;9.00;90.40
44111;DHT22;29774;52.664;5.074;2023-11-21T00:32:15;9.00;90.40
44111;DHT22;29774;52.664;5.074;2023-11-21T00:34:40;8.90;90.30
44111;DHT22;29774;52.664;5.074;2023-11-21T00:37:06;8.90;90.30
44111;DHT22;29774;52.664;5.074;2023-11-21T00:39:33;8.90;90.30
44111;DHT22;29774;52.664;5.074;2023-11-21T00:42:00;8.90;90.30
44111;DHT22;29774;52.664;5.074;2023-11-21T00:44:26;8.80;90.20
44111;DHT22;29774;52.664;5.074;2023-11-21T00:46:51;8.90;90.30
44111;DHT22;29774;52.664;5.074;2023-11-21T00:49:17;8.90;90.30
44111;DHT22;29774;52.664;5.074;2023-11-21T00:51:43;8.90;90.30
44111;DHT22;29774;52.664;5.074;2023-11-21T00:54:08;9.00;90.40
44111;DHT22;29774;52.664;5.074;2023-11-21T00:56:34;9.00;90.40
44111;DHT22;29774;52.664;5.074;2023-11-21T00:58:59;9.00;90.40
44111;DHT22;29774;52.664;5.074;2023-11-21T01:01:25;9.10;90.50
44111;DHT22;29774;52.664;5.074;2023-11-21T01:03:51;9.10;90.50
44111;DHT22;29774;52.664;5.074;2023-11-21T01:06:16;9.10;90.50
44111;DHT22;29774;52.664;5.074;2023-11-21T01:08:43;9.10;90.50
44111;DHT22;29774;52.664;5.074;2023-11-21T01:11:09;9.20;90.50
44111;DHT22;29774;52.664;5.074;2023-11-21T01:13:38;9.20;90.50
44111;DHT22;29774;52.664;5.074;2023-11-21T01:16:05;9.20;90.60
44111;DHT22;29774;52.664;5.074;2023-11-21T01:18:32;9.20;90.60
44111;DHT22;29774;52.664;5.074;2023-11-21T01:20:57;9.20;90.50
44111;DHT22;29774;52.664;5.074;2023-11-21T01:23:23;9.20;90.60
44111;DHT22;29774;52.664;5.074;2023-11-21T01:25:49;9.20;90.60
44111;DHT22;29774;52.664;5.074;2023-11-21T01:28:14;9.20;90.60
44111;DHT22;29774;52.664;5.074;2023-11-21T01:30:40;9.20;90.60
44111;DHT22;29774;52.664;5.074;2023-11-21T01:33:06;9.20;90.60
44111;DHT22;29774;52.664;5.074;2023-11-21T01:35:31;9.20;90.60
44111;DHT22;29774;52.664;5.074;2023-11-21T01:37:57;9.30;90.60
44111;DHT22;29774;52.664;5.074;2023-11-21T01:40:22;9.30;90.70
44111;DHT22;29774;52.664;5.074;2023-11-21T01:42:49;9.40;90.70
44111;DHT22;29774;52.664;5.074;2023-11-21T01:45:15;9.40;90.70
44111;DHT22;29774;52.664;5.074;2023-11-21T01:47:41;9.30;90.70
44111;DHT22;29774;52.664;5.074;2023-11-21T01:50:08;9.40;90.80
44111;DHT22;29774;52.664;5.074;2023-11-21T01:52:35;9.40;90.80
44111;DHT22;29774;52.664;5.074;2023-11-21T01:55:02;9.50;90.80
44111;DHT22;29774;52.664;5.074;2023-11-21T01:57:28;9.40;90.80
44111;DHT22;29774;52.664;5.074;2023-11-21T01:59:55;9.50;90.80
44111;DHT22;29774;52.664;5.074;2023-11-21T02:02:21;9.50;90.80
44111;DHT22;29774;52.664;5.074;2023-11-21T02:04:47;9.50;90.80
44111;DHT22;29774;52.664;5.074;2023-11-21T02:07:12;9.50;90.80
44111;DHT22;29774;52.664;5.074;2023-11-21T02:09:38;9.50;90.90
44111;DHT22;29774;52.664;5.074;2023-11-21T02:12:04;9.50;90.90
44111;DHT22;29774;52.664;5.074;2023-11-21T02:14:30;9.60;90.90
44111;DHT22;29774;52.664;5.074;2023-11-21T02:16:56;9.60;90.90
44111;DHT22;29774;52.664;5.074;2023-11-21T02:19:22;9.60;90.90
44111;DHT22;29774;52.664;5.074;2023-11-21T02:21:51;9.60;91.00
44111;DHT22;29774;52.664;5.074;2023-11-21T02:24:23;9.60;91.00
44111;DHT22;29774;52.664;5.074;2023-11-21T02:26:50;9.60;91.00
44111;DHT22;29774;52.664;5.074;2023-11-21T02:29:19;9.70;91.00
44111;DHT22;29774;52.664;5.074;2023-11-21T02:31:48;9.70;91.00
44111;DHT22;29774;52.664;5.074;2023-11-21T02:34:17;9.60;90.90
44111;DHT22;29774;52.664;5.074;2023-11-21T02:36:44;9.60;91.00
44111;DHT22;29774;52.664;5.074;2023-11-21T02:39:10;9.50;90.90
44111;DHT22;29774;52.664;5.074;2023-11-21T02:41:39;9.50;90.90
44111;DHT22;29774;52.664;5.074;2023-11-21T02:44:05;9.50;90.80
44111;DHT22;29774;52.664;5.074;2023-11-21T02:46:35;9.40;90.70
44111;DHT22;29774;52.664;5.074;2023-11-21T02:49:02;9.30;90.60
44111;DHT22;29774;52.664;5.074;2023-11-21T02:51:28;9.20;90.60
44111;DHT22;29774;52.664;5.074;2023-11-21T02:53:54;9.20;90.50
44111;DHT22;29774;52.664;5.074;2023-11-21T02:56:19;9.10;90.30
44111;DHT22;29774;52.664;5.074;2023-11-21T02:58:45;9.00;90.20
44111;DHT22;29774;52.664;5.074;2023-11-21T03:01:11;9.00;90.20
44111;DHT22;29774;52.664;5.074;2023-11-21T03:03:40;9.00;90.10
44111;DHT22;29774;52.664;5.074;2023-11-21T03:06:06;9.00;90.00
44111;DHT22;29774;52.664;5.074;2023-11-21T03:08:32;8.90;89.90
44111;DHT22;29774;52.664;5.074;2023-11-21T03:10:58;8.90;89.90
44111;DHT22;29774;52.664;5.074;2023-11-21T03:13:24;8.90;89.80
44111;DHT22;29774;52.664;5.074;2023-11-21T03:15:49;8.90;89.80
44111;DHT22;29774;52.664;5.074;2023-11-21T03:18:15;8.90;89.80
44111;DHT22;29774;52.664;5.074;2023-11-21T03:20:41;8.90;89.80
44111;DHT22;29774;52.664;5.074;2023-11-21T03:23:07;9.00;89.90
44111;DHT22;29774;52.664;5.074;2023-11-21T03:25:32;9.00;89.90
44111;DHT22;29774;52.664;5.074;2023-11-21T03:27:58;9.10;90.00
44111;DHT22;29774;52.664;5.074;2023-11-21T03:30:23;9.10;90.00
44111;DHT22;29774;52.664;5.074;2023-11-21T03:32:49;9.10;90.00
44111;DHT22;29774;52.664;5.074;2023-11-21T03:35:15;9.20;90.00
44111;DHT22;29774;52.664;5.074;2023-11-21T03:37:40;9.20;90.10
44111;DHT22;29774;52.664;5.074;2023-11-21T03:40:07;9.20;90.10
44111;DHT22;29774;52.664;5.074;2023-11-21T03:42:38;9.20;90.10
44111;DHT22;29774;52.664;5.074;2023-11-21T03:45:04;9.20;90.10
44111;DHT22;29774;52.664;5.074;2023-11-21T03:47:30;9.20;90.10
44111;DHT22;29774;52.664;5.074;2023-11-21T03:49:55;9.30;90.10
44111;DHT22;29774;52.664;5.074;2023-11-21T03:52:21;9.20;90.10
44111;DHT22;29774;52.664;5.074;2023-11-21T03:54:46;9.30;90.20
44111;DHT22;29774;52.664;5.074;2023-11-21T03:57:12;9.30;90.20
44111;DHT22;29774;52.664;5.074;2023-11-21T03:59:44;9.30;90.20
44111;DHT22;29774;52.664;5.074;2023-11-21T04:02:10;9.40;90.30
44111;DHT22;29774;52.664;5.074;2023-11-21T04:04:36;9.40;90.30
44111;DHT22;29774;52.664;5.074;2023-11-21T04:07:02;9.50;90.40
44111;DHT22;29774;52.664;5.074;2023-11-21T04:09:28;9.60;90.40
44111;DHT22;29774;52.664;5.074;2023-11-21T04:11:53;9.60;90.40
44111;DHT22;29774;52.664;5.074;2023-11-21T04:14:21;9.60;90.50
44111;DHT22;29774;52.664;5.074;2023-11-21T04:16:46;9.70;90.50
44111;DHT22;29774;52.664;5.074;2023-11-21T04:19:12;9.70;90.60
44111;DHT22;29774;52.664;5.074;2023-11-21T04:21:41;9.70;90.60
44111;DHT22;29774;52.664;5.074;2023-11-21T04:24:07;9.80;90.70
44111;DHT22;29774;52.664;5.074;2023-11-21T04:26:33;9.80;90.70
44111;DHT22;29774;52.664;5.074;2023-11-21T04:28:58;9.90;90.70
44111;DHT22;29774;52.664;5.074;2023-11-21T04:31:24;10.10;90.70
44111;DHT22;29774;52.664;5.074;2023-11-21T04:33:50;10.30;90.50
44111;DHT22;29774;52.664;5.074;2023-11-21T04:36:15;10.30;90.50
44111;DHT22;29774;52.664;5.074;2023-11-21T04:38:41;10.50;90.40
44111;DHT22;29774;52.664;5.074;2023-11-21T04:41:07;10.50;90.30
44111;DHT22;29774;52.664;5.074;2023-11-21T04:43:33;10.70;90.20
44111;DHT22;29774;52.664;5.074;2023-11-21T04:45:58;10.70;90.10
44111;DHT22;29774;52.664;5.074;2023-11-21T04:48:24;10.80;90.00
44111;DHT22;29774;52.664;5.074;2023-11-21T04:50:50;10.90;89.90
44111;DHT22;29774;52.664;5.074;2023-11-21T04:53:17;11.10;89.70
44111;DHT22;29774;52.664;5.074;2023-11-21T04:55:42;11.50;89.60
44111;DHT22;29774;52.664;5.074;2023-11-21T04:58:08;11.50;88.90
44111;DHT22;29774;52.664;5.074;2023-11-21T05:00:34;11.70;88.60
44111;DHT22;29774;52.664;5.074;2023-11-21T05:02:59;11.60;88.20
44111;DHT22;29774;52.664;5.074;2023-11-21T05:05:26;11.60;88.00
44111;DHT22;29774;52.664;5.074;2023-11-21T05:07:52;11.60;87.70
44111;DHT22;29774;52.664;5.074;2023-11-21T05:10:19;11.70;87.40
44111;DHT22;29774;52.664;5.074;2023-11-21T05:12:45;11.70;87.00
44111;DHT22;29774;52.664;5.074;2023-11-21T05:15:14;11.90;86.50
44111;DHT22;29774;52.664;5.074;2023-11-21T05:17:40;12.00;85.90
44111;DHT22;29774;52.664;5.074;2023-11-21T05:20:15;12.10;85.60
44111;DHT22;29774;52.664;5.074;2023-11-21T05:22:50;12.10;85.10
44111;DHT22;29774;52.664;5.074;2023-11-21T05:25:16;12.10;85.10
44111;DHT22;29774;52.664;5.074;2023-11-21T05:27:44;12.10;84.80
44111;DHT22;29774;52.664;5.074;2023-11-21T05:30:11;12.10;84.50
44111;DHT22;29774;52.664;5.074;2023-11-21T05:32:38;12.20;84.50
44111;DHT22;29774;52.664;5.074;2023-11-21T05:35:04;12.20;83.80
44111;DHT22;29774;52.664;5.074;2023-11-21T05:37:37;12.40;83.60
44111;DHT22;29774;52.664;5.074;2023-11-21T05:40:05;12.30;83.40
44111;DHT22;29774;52.664;5.074;2023-11-21T05:42:32;12.30;83.40
44111;DHT22;29774;52.664;5.074;2023-11-21T05:44:58;12.20;83.30
44111;DHT22;29774;52.664;5.074;2023-11-21T05:47:44;12.30;83.20
44111;DHT22;29774;52.664;5.074;2023-11-21T05:50:12;12.50;82.90
44111;DHT22;29774;52.664;5.074;2023-11-21T05:52:40;12.30;83.00
44111;DHT22;29774;52.664;5.074;2023-11-21T05:55:06;12.20;83.10
44111;DHT22;29774;52.664;5.074;2023-11-21T05:57:38;12.20;83.30
44111;DHT22;29774;52.664;5.074;2023-11-21T06:00:08;12.10;83.50
44111;DHT22;29774;52.664;5.074;2023-11-21T06:02:41;11.90;83.90
44111;DHT22;29774;52.664;5.074;2023-11-21T06:05:07;12.00;84.10
44111;DHT22;29774;52.664;5.074;2023-11-21T06:07:34;11.90;84.30
44111;DHT22;29774;52.664;5.074;2023-11-21T06:10:04;11.70;84.60
44111;DHT22;29774;52.664;5.074;2023-11-21T06:12:32;11.70;84.80
44111;DHT22;29774;52.664;5.074;2023-11-21T06:15:02;11.70;85.00
44111;DHT22;29774;52.664;5.074;2023-11-21T06:17:30;11.70;85.20
44111;DHT22;29774;52.664;5.074;2023-11-21T06:19:56;11.70;85.40
44111;DHT22;29774;52.664;5.074;2023-11-21T06:22:22;11.60;85.40
44111;DHT22;29774;52.664;5.074;2023-11-21T06:24:48;12.00;85.30
44111;DHT22;29774;52.664;5.074;2023-11-21T06:27:13;12.20;84.70
44111;DHT22;29774;52.664;5.074;2023-11-21T06:29:39;12.20;84.20
44111;DHT22;29774;52.664;5.074;2023-11-21T06:32:04;12.20;83.90
44111;DHT22;29774;52.664;5.074;2023-11-21T06:34:30;12.10;84.00
44111;DHT22;29774;52.664;5.074;2023-11-21T06:36:56;12.10;84.00
44111;DHT22;29774;52.664;5.074;2023-11-21T06:39:22;12.10;83.90
44111;DHT22;29774;52.664;5.074;2023-11-21T06:41:51;12.00;84.10
44111;DHT22;29774;52.664;5.074;2023-11-21T06:44:16;11.80;84.60
44111;DHT22;29774;52.664;5.074;2023-11-21T06:46:42;11.70;84.90
44111;DHT22;29774;52.664;5.074;2023-11-21T06:49:08;11.60;85.30
44111;DHT22;29774;52.664;5.074;2023-11-21T06:51:34;11.60;85.50
44111;DHT22;29774;52.664;5.074;2023-11-21T06:53:59;11.50;85.60
44111;DHT22;29774;52.664;5.074;2023-11-21T06:56:25;11.50;86.10
44111;DHT22;29774;52.664;5.074;2023-11-21T06:58:51;11.40;86.40
44111;DHT22;29774;52.664;5.074;2023-11-21T07:01:19;11.30;86.60
44111;DHT22;29774;52.664;5.074;2023-11-21T07:03:45;11.30;86.90
44111;DHT22;29774;52.664;5.074;2023-11-21T07:06:11;11.40;86.70
44111;DHT22;29774;52.664;5.074;2023-11-21T07:08:37;11.50;86.70
44111;DHT22;29774;52.664;5.074;2023-11-21T07:11:03;11.50;86.70
44111;DHT22;29774;52.664;5.074;2023-11-21T07:13:30;11.50;86.70
44111;DHT22;29774;52.664;5.074;2023-11-21T07:15:56;11.40;86.90
44111;DHT22;29774;52.664;5.074;2023-11-21T07:18:21;11.50;86.90
44111;DHT22;29774;52.664;5.074;2023-11-21T07:20:48;11.50;86.90
44111;DHT22;29774;52.664;5.074;2023-11-21T07:23:14;11.70;86.80
44111;DHT22;29774;52.664;5.074;2023-11-21T07:25:41;11.80;86.40
44111;DHT22;29774;52.664;5.074;2023-11-21T07:28:07;12.00;86.30
44111;DHT22;29774;52.664;5.074;2023-11-21T07:30:32;12.20;85.90
44111;DHT22;29774;52.664;5.074;2023-11-21T07:32:58;12.10;85.40
44111;DHT22;29774;52.664;5.074;2023-11-21T07:35:24;12.10;85.30
44111;DHT22;29774;52.664;5.074;2023-11-21T07:37:49;12.10;84.90
44111;DHT22;29774;52.664;5.074;2023-11-21T07:40:15;12.00;84.80
44111;DHT22;29774;52.664;5.074;2023-11-21T07:42:42;12.00;84.70
44111;DHT22;29774;52.664;5.074;2023-11-21T07:45:08;12.00;84.60
44111;DHT22;29774;52.664;5.074;2023-11-21T07:47:34;12.20;84.50
44111;DHT22;29774;52.664;5.074;2023-11-21T07:50:01;12.20;84.20
44111;DHT22;29774;52.664;5.074;2023-11-21T07:52:28;12.20;84.00
44111;DHT22;29774;52.664;5.074;2023-11-21T07:54:54;12.00;83.90
44111;DHT22;29774;52.664;5.074;2023-11-21T07:57:19;11.90;84.20
44111;DHT22;29774;52.664;5.074;2023-11-21T07:59:45;11.80;84.40
44111;DHT22;29774;52.664;5.074;2023-11-21T08:02:10;11.80;84.40
44111;DHT22;29774;52.664;5.074;2023-11-21T08:04:36;11.70;84.70
44111;DHT22;29774;52.664;5.074;2023-11-21T08:07:02;11.90;84.70
44111;DHT22;29774;52.664;5.074;2023-11-21T08:09:29;11.90;84.50
44111;DHT22;29774;52.664;5.074;2023-11-21T08:11:55;11.80;84.40
44111;DHT22;29774;52.664;5.074;2023-11-21T08:14:22;11.70;84.50
44111;DHT22;29774;52.664;5.074;2023-11-21T08:16:47;11.70;84.70
44111;DHT22;29774;52.664;5.074;2023-11-21T08:19:13;11.70;84.70
44111;DHT22;29774;52.664;5.074;2023-11-21T08:21:38;11.70;84.90
44111;DHT22;29774;52.664;5.074;2023-11-21T08:24:06;11.50;85.10
44111;DHT22;29774;52.664;5.074;2023-11-21T08:26:36;11.50;85.10
44111;DHT22;29774;52.664;5.074;2023-11-21T08:29:01;11.70;85.10
44111;DHT22;29774;52.664;5.074;2023-11-21T08:31:28;11.80;85.00
44111;DHT22;29774;52.664;5.074;2023-11-21T08:33:54;11.70;84.80
44111;DHT22;29774;52.664;5.074;2023-11-21T08:36:24;11.60;84.80
44111;DHT22;29774;52.664;5.074;2023-11-21T08:38:50;11.80;85.00
44111;DHT22;29774;52.664;5.074;2023-11-21T08:41:17;11.70;84.60
44111;DHT22;29774;52.664;5.074;2023-11-21T08:43:43;11.90;84.70
44111;DHT22;29774;52.664;5.074;2023-11-21T08:46:10;12.00;84.40
44111;DHT22;29774;52.664;5.074;2023-11-21T08:48:36;12.00;84.00
44111;DHT22;29774;52.664;5.074;2023-11-21T08:51:03;11.90;83.80
44111;DHT22;29774;52.664;5.074;2023-11-21T08:53:29;12.10;84.20
44111;DHT22;29774;52.664;5.074;2023-11-21T08:55:56;12.20;83.40
44111;DHT22;29774;52.664;5.074;2023-11-21T08:58:22;12.20;82.90
44111;DHT22;29774;52.664;5.074;2023-11-21T09:00:48;12.10;82.80
44111;DHT22;29774;52.664;5.074;2023-11-21T09:03:13;11.80;83.10
44111;DHT22;29774;52.664;5.074;2023-11-21T09:05:39;11.70;83.90
44111;DHT22;29774;52.664;5.074;2023-11-21T09:08:05;11.50;84.50
44111;DHT22;29774;52.664;5.074;2023-11-21T09:10:33;11.60;84.80
44111;DHT22;29774;52.664;5.074;2023-11-21T09:13:01;11.50;85.00
44111;DHT22;29774;52.664;5.074;2023-11-21T09:15:27;11.60;85.00
44111;DHT22;29774;52.664;5.074;2023-11-21T09:17:53;11.50;85.10
44111;DHT22;29774;52.664;5.074;2023-11-21T09:20:19;11.70;85.00
44111;DHT22;29774;52.664;5.074;2023-11-21T09:22:48;11.70;84.90
44111;DHT22;29774;52.664;5.074;2023-11-21T09:25:14;11.40;85.10
44111;DHT22;29774;52.664;5.074;2023-11-21T09:27:40;11.50;85.10
44111;DHT22;29774;52.664;5.074;2023-11-21T09:30:07;11.60;84.80
44111;DHT22;29774;52.664;5.074;2023-11-21T09:32:35;11.60;84.70
44111;DHT22;29774;52.664;5.074;2023-11-21T09:35:03;11.30;85.00
44111;DHT22;29774;52.664;5.074;2023-11-21T09:37:30;11.30;85.20
44111;DHT22;29774;52.664;5.074;2023-11-21T09:39:56;11.40;85.40
44111;DHT22;29774;52.664;5.074;2023-11-21T09:43:05;11.30;85.30
44111;DHT22;29774;52.664;5.074;2023-11-21T09:45:25;11.30;85.40
44111;DHT22;29774;52.664;5.074;2023-11-21T09:47:53;11.40;85.40
44111;DHT22;29774;52.664;5.074;2023-11-21T09:50:21;11.20;85.10
44111;DHT22;29774;52.664;5.074;2023-11-21T09:55:36;11.40;85.20
44111;DHT22;29774;52.664;5.074;2023-11-21T09:58:03;11.40;85.20
44111;DHT22;29774;52.664;5.074;2023-11-21T10:00:30;11.60;85.10
44111;DHT22;29774;52.664;5.074;2023-11-21T10:02:58;11.50;84.40
44111;DHT22;29774;52.664;5.074;2023-11-21T10:05:25;11.60;84.60
44111;DHT22;29774;52.664;5.074;2023-11-21T10:07:50;11.70;84.40
44111;DHT22;29774;52.664;5.074;2023-11-21T10:10:18;11.70;84.10
44111;DHT22;29774;52.664;5.074;2023-11-21T10:12:49;11.70;83.90
44111;DHT22;29774;52.664;5.074;2023-11-21T10:15:21;11.60;83.90
44111;DHT22;29774;52.664;5.074;2023-11-21T10:17:49;11.70;83.90
44111;DHT22;29774;52.664;5.074;2023-11-21T10:20:16;11.70;83.80
44111;DHT22;29774;52.664;5.074;2023-11-21T10:22:43;11.40;83.40
44111;DHT22;29774;52.664;5.074;2023-11-21T10:25:09;11.30;83.80
44111;DHT22;29774;52.664;5.074;2023-11-21T10:27:38;11.30;84.00
44111;DHT22;29774;52.664;5.074;2023-11-21T10:30:05;11.60;83.70
44111;DHT22;29774;52.664;5.074;2023-11-21T10:32:31;11.70;83.90
44111;DHT22;29774;52.664;5.074;2023-11-21T10:34:58;11.70;83.70
44111;DHT22;29774;52.664;5.074;2023-11-21T10:37:26;11.70;83.20
44111;DHT22;29774;52.664;5.074;2023-11-21T10:40:00;11.60;83.10
44111;DHT22;29774;52.664;5.074;2023-11-21T10:42:26;11.50;83.20
44111;DHT22;29774;52.664;5.074;2023-11-21T10:44:53;11.50;83.30
44111;DHT22;29774;52.664;5.074;2023-11-21T10:47:19;11.70;83.10
44111;DHT22;29774;52.664;5.074;2023-11-21T10:49:48;11.50;83.00
44111;DHT22;29774;52.664;5.074;2023-11-21T10:52:14;11.80;83.50
44111;DHT22;29774;52.664;5.074;2023-11-21T10:54:43;11.80;83.10
44111;DHT22;29774;52.664;5.074;2023-11-21T10:57:10;11.80;82.60
44111;DHT22;29774;52.664;5.074;2023-11-21T10:59:36;12.10;82.80
44111;DHT22;29774;52.664;5.074;2023-11-21T11:02:15;11.90;81.70
44111;DHT22;29774;52.664;5.074;2023-11-21T11:04:48;11.80;82.00
44111;DHT22;29774;52.664;5.074;2023-11-21T11:07:15;11.60;81.80
44111;DHT22;29774;52.664;5.074;2023-11-21T11:09:41;11.80;82.80
44111;DHT22;29774;52.664;5.074;2023-11-21T11:12:08;11.90;82.20
44111;DHT22;29774;52.664;5.074;2023-11-21T11:14:35;11.90;81.70
44111;DHT22;29774;52.664;5.074;2023-11-21T11:17:02;11.70;81.20
44111;DHT22;29774;52.664;5.074;2023-11-21T11:19:30;11.40;81.30
44111;DHT22;29774;52.664;5.074;2023-11-21T11:36:22;11.10;82.50
44111;DHT22;29774;52.664;5.074;2023-11-21T11:38:50;11.10;83.30
44111;DHT22;29774;52.664;5.074;2023-11-21T11:41:27;11.10;83.30
44111;DHT22;29774;52.664;5.074;2023-11-21T11:43:53;11.30;83.90
44111;DHT22;29774;52.664;5.074;2023-11-21T11:46:19;11.20;83.10
44111;DHT22;29774;52.664;5.074;2023-11-21T11:48:48;11.30;83.90
44111;DHT22;29774;52.664;5.074;2023-11-21T11:51:27;11.40;83.60
44111;DHT22;29774;52.664;5.074;2023-11-21T11:53:53;11.50;83.00
44111;DHT22;29774;52.664;5.074;2023-11-21T11:56:33;11.30;82.70
44111;DHT22;29774;52.664;5.074;2023-11-21T11:59:02;11.40;82.60
44111;DHT22;29774;52.664;5.074;2023-11-21T12:01:28;11.40;82.50
44111;DHT22;29774;52.664;5.074;2023-11-21T12:07:00;10.70;84.00
44111;DHT22;29774;52.664;5.074;2023-11-21T12:09:29;10.70;84.10
44111;DHT22;29774;52.664;5.074;2023-11-21T12:11:55;10.90;83.90
44111;DHT22;29774;52.664;5.074;2023-11-21T12:14:24;11.00;83.80
44111;DHT22;29774;52.664;5.074;2023-11-21T12:16:49;11.10;84.00
44111;DHT22;29774;52.664;5.074;2023-11-21T12:19:17;11.10;82.70
44111;DHT22;29774;52.664;5.074;2023-11-21T12:21:43;11.00;82.80
44111;DHT22;29774;52.664;5.074;2023-11-21T12:24:09;10.90;82.80
44111;DHT22;29774;52.664;5.074;2023-11-21T12:26:35;10.90;83.10
44111;DHT22;29774;52.664;5.074;2023-11-21T12:29:04;10.90;83.00
44111;DHT22;29774;52.664;5.074;2023-11-21T12:31:33;10.90;82.60
44111;DHT22;29774;52.664;5.074;2023-11-21T12:34:00;11.30;84.30
44111;DHT22;29774;52.664;5.074;2023-11-21T12:36:26;11.10;81.80
44111;DHT22;29774;52.664;5.074;2023-11-21T12:38:54;10.70;82.50
44111;DHT22;29774;52.664;5.074;2023-11-21T12:41:20;10.60;83.10
44111;DHT22;29774;52.664;5.074;2023-11-21T12:43:47;10.60;83.30
44111;DHT22;29774;52.664;5.074;2023-11-21T12:46:14;10.70;82.80
44111;DHT22;29774;52.664;5.074;2023-11-21T12:48:44;11.00;83.50
44111;DHT22;29774;52.664;5.074;2023-11-21T12:51:11;11.00;82.70
44111;DHT22;29774;52.664;5.074;2023-11-21T12:53:38;11.10;82.60
44111;DHT22;29774;52.664;5.074;2023-11-21T12:56:13;11.20;82.50
44111;DHT22;29774;52.664;5.074;2023-11-21T12:58:44;11.20;82.40
44111;DHT22;29774;52.664;5.074;2023-11-21T13:01:13;11.20;82.10
44111;DHT22;29774;52.664;5.074;2023-11-21T13:03:43;11.30;82.20
44111;DHT22;29774;52.664;5.074;2023-11-21T13:06:11;11.20;81.60
44111;DHT22;29774;52.664;5.074;2023-11-21T13:08:38;11.40;82.10
44111;DHT22;29774;52.664;5.074;2023-11-21T13:11:05;11.60;81.70
44111;DHT22;29774;52.664;5.074;2023-11-21T13:13:31;11.40;80.30
44111;DHT22;29774;52.664;5.074;2023-11-21T13:16:00;11.00;80.40
44111;DHT22;29774;52.664;5.074;2023-11-21T13:18:28;10.80;80.50
44111;DHT22;29774;52.664;5.074;2023-11-21T13:20:58;10.70;81.30
44111;DHT22;29774;52.664;5.074;2023-11-21T13:23:25;10.90;81.70
44111;DHT22;29774;52.664;5.074;2023-11-21T13:25:51;11.00;81.70
44111;DHT22;29774;52.664;5.074;2023-11-21T13:28:17;10.70;81.40
44111;DHT22;29774;52.664;5.074;2023-11-21T13:30:46;10.70;81.10
44111;DHT22;29774;52.664;5.074;2023-11-21T13:33:13;10.50;81.50
44111;DHT22;29774;52.664;5.074;2023-11-21T13:35:43;10.30;81.30
44111;DHT22;29774;52.664;5.074;2023-11-21T13:38:14;10.30;81.70
44111;DHT22;29774;52.664;5.074;2023-11-21T13:40:47;10.20;82.00
44111;DHT22;29774;52.664;5.074;2023-11-21T13:43:16;10.20;82.00
44111;DHT22;29774;52.664;5.074;2023-11-21T13:45:44;10.20;82.10
44111;DHT22;29774;52.664;5.074;2023-11-21T13:48:10;10.30;82.30
44111;DHT22;29774;52.664;5.074;2023-11-21T13:50:43;10.30;82.40
44111;DHT22;29774;52.664;5.074;2023-11-21T13:53:15;10.40;82.30
44111;DHT22;29774;52.664;5.074;2023-11-21T13:55:50;10.70;82.40
44111;DHT22;29774;52.664;5.074;2023-11-21T13:58:20;10.80;82.30
44111;DHT22;29774;52.664;5.074;2023-11-21T14:00:50;10.90;82.10
44111;DHT22;29774;52.664;5.074;2023-11-21T14:03:25;11.00;82.20
44111;DHT22;29774;52.664;5.074;2023-11-21T14:06:03;10.80;80.80
44111;DHT22;29774;52.664;5.074;2023-11-21T14:08:34;10.60;81.00
44111;DHT22;29774;52.664;5.074;2023-11-21T14:10:59;11.00;82.50
44111;DHT22;29774;52.664;5.074;2023-11-21T14:13:26;10.70;80.30
44111;DHT22;29774;52.664;5.074;2023-11-21T14:15:52;10.60;80.70
44111;DHT22;29774;52.664;5.074;2023-11-21T14:18:25;10.80;82.00
44111;DHT22;29774;52.664;5.074;2023-11-21T14:20:57;10.80;81.60
44111;DHT22;29774;52.664;5.074;2023-11-21T14:23:23;10.70;80.70
44111;DHT22;29774;52.664;5.074;2023-11-21T14:25:49;10.60;81.40
44111;DHT22;29774;52.664;5.074;2023-11-21T14:28:16;10.70;81.00
44111;DHT22;29774;52.664;5.074;2023-11-21T14:30:42;10.70;80.00
44111;DHT22;29774;52.664;5.074;2023-11-21T14:33:08;10.90;82.70
44111;DHT22;29774;52.664;5.074;2023-11-21T14:35:35;10.70;79.50
44111;DHT22;29774;52.664;5.074;2023-11-21T14:38:01;10.50;79.60
44111;DHT22;29774;52.664;5.074;2023-11-21T14:40:30;10.60;80.80
44111;DHT22;29774;52.664;5.074;2023-11-21T14:43:00;10.30;79.80
44111;DHT22;29774;52.664;5.074;2023-11-21T14:45:26;10.10;79.90
44111;DHT22;29774;52.664;5.074;2023-11-21T14:47:52;10.20;80.40
44111;DHT22;29774;52.664;5.074;2023-11-21T14:50:47;10.40;80.70
44111;DHT22;29774;52.664;5.074;2023-11-21T14:53:28;10.40;80.00
44111;DHT22;29774;52.664;5.074;2023-11-21T14:56:19;10.30;80.10
44111;DHT22;29774;52.664;5.074;2023-11-21T14:58:52;10.20;79.70
44111;DHT22;29774;52.664;5.074;2023-11-21T15:01:18;10.20;80.30
44111;DHT22;29774;52.664;5.074;2023-11-21T15:03:52;10.40;80.70
44111;DHT22;29774;52.664;5.074;2023-11-21T15:06:19;10.50;79.50
44111;DHT22;29774;52.664;5.074;2023-11-21T15:08:49;10.20;78.80
44111;DHT22;29774;52.664;5.074;2023-11-21T15:11:20;10.30;80.20
44111;DHT22;29774;52.664;5.074;2023-11-21T15:13:50;10.50;80.70
44111;DHT22;29774;52.664;5.074;2023-11-21T15:16:18;10.40;78.90
44111;DHT22;29774;52.664;5.074;2023-11-21T15:18:44;10.50;79.60
44111;DHT22;29774;52.664;5.074;2023-11-21T15:21:09;10.50;79.90
44111;DHT22;29774;52.664;5.074;2023-11-21T15:23:37;10.70;80.90
44111;DHT22;29774;52.664;5.074;2023-11-21T15:26:04;10.40;79.00
44111;DHT22;29774;52.664;5.074;2023-11-21T15:28:30;10.20;78.50
44111;DHT22;29774;52.664;5.074;2023-11-21T15:30:58;10.10;77.80
44111;DHT22;29774;52.664;5.074;2023-11-21T15:33:23;9.90;78.70
44111;DHT22;29774;52.664;5.074;2023-11-21T15:35:49;9.80;78.40
44111;DHT22;29774;52.664;5.074;2023-11-21T15:38:15;9.80;78.60
44111;DHT22;29774;52.664;5.074;2023-11-21T15:40:40;9.80;79.50
44111;DHT22;29774;52.664;5.074;2023-11-21T15:43:08;9.80;79.10
44111;DHT22;29774;52.664;5.074;2023-11-21T15:45:34;9.70;78.80
44111;DHT22;29774;52.664;5.074;2023-11-21T15:47:59;9.80;79.50
44111;DHT22;29774;52.664;5.074;2023-11-21T15:50:26;9.90;79.40
44111;DHT22;29774;52.664;5.074;2023-11-21T15:52:52;9.80;78.90
44111;DHT22;29774;52.664;5.074;2023-11-21T15:55:19;9.80;79.10